FSLO2: Fort Supply Lake

Data processed at Wed May 22 2019 23:50


All information presented herein is the property of the government of the United States of America and may be revised or deleted at any time without prior notice.
Dissemination of this information without the expressed written consent of the Public Affairs Office, Tulsa District U.S. Army Corps of Engineers is strictly prohibited.
These data are gathered electronically and, as presented, have not undergone any form of quality control. These data are not guaranteed to be valid or correct.
Go to home page.
Go to station list.
Go to home page.

Upstream stations:

Downstream station:
Previous Day
Next Day
Current Day
    
SHEF ID:       FSLO2     Ft. Supply Lake
STATION TYPE:  RESERVOIR
Flood Pool:  Bottom =  2004.00, Top =  2028.00

               PRECIP ELEVATION   STORAGE    INFLOW   RELEASE  AIR-TEMP  WIND-DIRWIND-SPEED REL-HUMID SOLAR-RAD   VOLTAGE  BAT-LOAD
                   in        ft     ac-ft       cfs       cfs         F       deg       mph         %      W/m2      volt      volt
              Ccp-Rev   Ccp-Rev   Ccp-Rev  Rev-Regi  Rev-Regi   Ccp-Rev   Ccp-Rev   Ccp-Rev   Ccp-Rev   Ccp-Rev   Ccp-Rev   Ccp-Rev
(US/Central)
05/22 00:00      0.00   2005.78     15782       135         0     52.52    292.20      3.40     79.32      0.00     13.43     13.29
05/22 01:00      0.00   2005.78     15782       179         0     51.06    309.80      4.80     76.93      0.00     13.43     13.29
05/22 02:00      0.00   2005.79     15802       179         0     48.90    315.50      5.40     79.00      0.00     13.43     13.29
05/22 03:00      0.00   2005.80     15822       280         0     47.77    312.00      4.20     79.98      0.00     13.43     13.29
05/22 04:00      0.00   2005.81     15842       280         0     46.47    323.80      5.80     81.42      0.00     13.43     13.29
05/22 05:00      0.00   2005.84     15903       381         0     45.36    325.50      4.90     84.19      0.00     13.43     13.29
05/22 06:00      0.00   2005.84     15903       385         0     45.16    339.70      4.40     87.37      0.00     13.43     13.29
05/22 07:00      0.00   2005.87     15963       437         0     44.91    276.10      1.90     88.87      0.00     13.43     13.29
05/22 08:00      0.00   2005.88     15983       389         0     45.50    337.70      2.70     87.53    124.00     13.43     13.29
05/22 09:00      0.00   2005.90     16023       535         0     50.07    330.90      2.20     73.63    387.20     13.43     13.29
05/22 10:00      0.00   2005.92     16063       486         0     54.97    357.40      1.70     58.99    620.60     13.43     13.29
05/22 11:00      0.00   2005.95     16124       535         0     58.51     75.30      2.30     52.52    826.00     13.43     13.05
05/22 12:00      0.00   2005.97     16164       539         0     61.11    240.40      2.10     49.55    963.00     13.43     13.29
05/22 13:00      0.00   2005.99     16204       601         0     63.61    193.60      3.20     48.11   1037.60     13.43     13.29
05/22 14:00      0.00   2006.01     16246       614         0     66.52    194.80      2.40     46.84    976.40     13.43     13.29
05/22 15:00      0.00   2006.04     16312       676         0     69.82    190.50      2.70     45.24   1000.80     13.43     13.29
05/22 16:00      0.00   2006.07     16377       685         0     72.66    147.30      6.50     44.83    913.40     13.43     13.29
05/22 17:00      0.00   2006.10     16443       689         0     74.50    140.30      7.70     43.76    833.40     13.43     13.29
05/22 18:00      0.00   2006.12     16487       689         0     76.30    115.80      5.10     44.39    620.10     13.43     13.29
05/22 19:00      0.00   2006.14     16531       689         0     76.77     81.00      3.20     45.19    388.50     13.43     13.29
05/22 20:00      0.00   2006.17     16596       636         0     74.34     69.20      2.90     50.26    167.10     13.43     13.29
05/22 21:00      0.00   2006.20     16662       689         0     70.81     14.30      1.30     52.34     12.80     13.44     13.29
05/22 22:00      0.00   2006.22     16706       689         0     66.63    101.10      3.70     63.87      0.00     13.43     13.29
05/22 23:00      0.00   2006.25     16771       742         0     64.49    103.60      3.60     69.37      0.00     13.44     13.29